createdAt,value
2022-09-16T00:01:36.293Z,15.08
2022-09-16T00:04:03.220Z,15.08
2022-09-16T00:06:30.712Z,15.09
2022-09-16T00:09:00.957Z,15.12
2022-09-16T00:11:27.647Z,15.13
2022-09-16T00:13:54.241Z,15.13
2022-09-16T00:16:23.937Z,15.12
2022-09-16T00:18:54.851Z,15.12
2022-09-16T00:21:22.364Z,15.12
2022-09-16T00:23:48.740Z,15.14
2022-09-16T00:26:15.437Z,15.14
2022-09-16T00:28:41.919Z,15.15
2022-09-16T00:31:08.574Z,15.15
2022-09-16T00:33:35.470Z,15.18
2022-09-16T00:36:17.095Z,15.16
2022-09-16T00:38:44.155Z,15.14
2022-09-16T00:41:20.910Z,15.11
2022-09-16T00:43:54.230Z,15.08
2022-09-16T00:46:45.636Z,15.06
2022-09-16T00:49:20.613Z,15.07
2022-09-16T00:51:50.887Z,15.05
2022-09-16T00:54:18.781Z,15.04
2022-09-16T00:56:51.191Z,15.02
2022-09-16T00:59:19.558Z,15.04
2022-09-16T01:01:47.368Z,15.03
2022-09-16T01:04:18.668Z,15.04
2022-09-16T01:06:45.935Z,15.05
2022-09-16T01:09:12.760Z,15.08
2022-09-16T01:11:39.118Z,15.06
2022-09-16T01:14:24.605Z,15.02
2022-09-16T01:17:20.432Z,15.03
2022-09-16T01:20:07.522Z,15.05
2022-09-16T01:23:02.873Z,15.07
2022-09-16T01:25:49.117Z,15.10
2022-09-16T01:28:18.499Z,15.10
2022-09-16T01:31:07.666Z,15.09
2022-09-16T01:33:54.653Z,15.07
2022-09-16T01:36:31.730Z,15.02
2022-09-16T01:39:29.206Z,14.98
2022-09-16T01:42:21.145Z,14.96
2022-09-16T01:44:56.678Z,14.96
2022-09-16T01:47:58.436Z,14.96
2022-09-16T01:50:33.292Z,14.93
2022-09-16T01:53:12.561Z,14.85
2022-09-16T01:55:49.234Z,14.81
2022-09-16T01:58:26.265Z,14.77
2022-09-16T02:00:59.183Z,14.77
2022-09-16T02:03:30.413Z,14.72
2022-09-16T02:06:02.044Z,14.70
2022-09-16T02:08:59.589Z,14.68
2022-09-16T02:11:26.189Z,14.67
2022-09-16T02:13:59.654Z,14.61
2022-09-16T02:16:55.358Z,14.57
2022-09-16T02:19:31.276Z,14.53
2022-09-16T02:22:02.030Z,14.50
2022-09-16T02:24:31.305Z,14.49
2022-09-16T02:27:00.834Z,14.49
2022-09-16T02:29:32.771Z,14.47
2022-09-16T02:32:03.375Z,14.47
2022-09-16T02:34:35.853Z,14.46
2022-09-16T02:37:09.424Z,14.45
2022-09-16T02:39:39.842Z,14.43
2022-09-16T02:42:07.264Z,14.45
2022-09-16T02:44:34.324Z,14.42
2022-09-16T02:47:04.541Z,14.39
2022-09-16T02:49:57.479Z,14.40
2022-09-16T02:52:35.961Z,14.40
2022-09-16T02:55:40.021Z,14.42
2022-09-16T02:58:07.135Z,14.41
2022-09-16T03:00:40.137Z,14.39
2022-09-16T03:03:06.923Z,14.38
2022-09-16T03:05:33.300Z,14.37
2022-09-16T03:08:03.740Z,14.31
2022-09-16T03:10:39.651Z,14.31
2022-09-16T03:13:18.039Z,14.32
2022-09-16T03:15:56.257Z,14.33
2022-09-16T03:18:38.474Z,14.29
2022-09-16T03:21:25.711Z,14.26
2022-09-16T03:24:08.529Z,14.27
2022-09-16T03:26:48.746Z,14.27
2022-09-16T03:29:40.596Z,14.27
2022-09-16T03:32:27.233Z,14.30
2022-09-16T03:34:57.285Z,14.34
2022-09-16T03:37:27.640Z,14.33
2022-09-16T03:39:59.623Z,14.33
2022-09-16T03:42:26.075Z,14.34
2022-09-16T03:44:52.400Z,14.36
2022-09-16T03:47:18.769Z,14.36
2022-09-16T03:49:45.213Z,14.35
2022-09-16T03:52:11.671Z,14.38
2022-09-16T03:54:38.105Z,14.38
2022-09-16T03:57:05.678Z,14.38
2022-09-16T03:59:32.520Z,14.39
2022-09-16T04:01:59.101Z,14.41
2022-09-16T04:04:25.512Z,14.41
2022-09-16T04:06:51.921Z,14.44
2022-09-16T04:09:18.373Z,14.43
2022-09-16T04:11:44.700Z,14.44
2022-09-16T04:14:11.459Z,14.40
2022-09-16T04:16:38.034Z,14.43
2022-09-16T04:19:05.091Z,14.41
2022-09-16T04:21:31.540Z,14.40
2022-09-16T04:23:57.934Z,14.42
2022-09-16T04:26:24.445Z,14.41
2022-09-16T04:28:54.573Z,14.46
2022-09-16T04:31:21.750Z,14.44
2022-09-16T04:33:48.629Z,14.41
2022-09-16T04:36:17.270Z,14.40
2022-09-16T04:38:45.461Z,14.41
2022-09-16T04:41:14.474Z,14.42
2022-09-16T04:43:41.683Z,14.39
2022-09-16T04:46:08.633Z,14.38
2022-09-16T04:48:35.221Z,14.36
2022-09-16T04:51:11.997Z,14.33
2022-09-16T04:53:43.888Z,14.34
2022-09-16T04:56:15.798Z,14.34
2022-09-16T04:58:50.520Z,14.35
2022-09-16T05:01:23.166Z,14.31
2022-09-16T05:03:52.780Z,14.29
2022-09-16T05:06:21.846Z,14.28
2022-09-16T05:08:52.766Z,14.27
2022-09-16T05:11:23.895Z,14.28
2022-09-16T05:13:50.342Z,14.26
2022-09-16T05:16:19.972Z,14.22
2022-09-16T05:18:48.897Z,14.20
2022-09-16T05:21:18.919Z,14.16
2022-09-16T05:23:47.166Z,14.14
2022-09-16T05:26:19.722Z,14.18
2022-09-16T05:28:46.645Z,14.20
2022-09-16T05:31:18.051Z,14.23
2022-09-16T05:33:48.226Z,14.28
2022-09-16T05:36:17.179Z,14.28
2022-09-16T05:38:59.165Z,14.27
2022-09-16T05:41:31.300Z,14.29
2022-09-16T05:44:01.792Z,14.26
2022-09-16T05:46:28.598Z,14.23
2022-09-16T05:48:56.353Z,14.22
2022-09-16T05:51:24.916Z,14.16
2022-09-16T05:53:52.364Z,14.15
2022-09-16T05:56:21.883Z,14.14
2022-09-16T05:58:48.838Z,14.14
2022-09-16T06:01:20.866Z,14.11
2022-09-16T06:03:49.091Z,14.08
2022-09-16T06:06:30.010Z,14.07
2022-09-16T06:08:58.787Z,14.06
2022-09-16T06:11:26.765Z,14.07
2022-09-16T06:13:58.008Z,14.04
2022-09-16T06:16:28.264Z,13.99
2022-09-16T06:18:55.627Z,13.98
2022-09-16T06:21:23.067Z,13.96
2022-09-16T06:23:50.027Z,13.96
2022-09-16T06:26:19.021Z,13.96
2022-09-16T06:28:46.835Z,14.00
2022-09-16T06:31:15.829Z,14.02
2022-09-16T06:33:42.990Z,13.99
2022-09-16T06:36:15.168Z,13.96
2022-09-16T06:38:42.129Z,13.95
2022-09-16T06:43:36.899Z,14.03
2022-09-16T06:46:18.222Z,14.06
2022-09-16T06:48:47.849Z,14.06
2022-09-16T06:51:16.697Z,14.04
2022-09-16T06:53:44.038Z,13.97
2022-09-16T06:56:13.635Z,13.86
2022-09-16T06:58:42.154Z,13.78
2022-09-16T07:01:11.374Z,13.62
2022-09-16T07:03:42.933Z,13.43
2022-09-16T07:06:10.655Z,13.37
2022-09-16T07:08:38.619Z,13.37
2022-09-16T07:11:16.253Z,13.40
2022-09-16T07:13:43.892Z,13.43
2022-09-16T07:16:16.326Z,13.40
2022-09-16T07:18:43.653Z,13.30
2022-09-16T07:21:15.946Z,13.28
2022-09-16T07:23:43.670Z,13.32
2022-09-16T07:26:11.439Z,13.40
2022-09-16T07:28:39.260Z,13.48
2022-09-16T07:31:08.907Z,13.48
2022-09-16T07:33:39.671Z,13.47
2022-09-16T07:36:07.689Z,13.51
2022-09-16T07:38:34.537Z,13.48
2022-09-16T07:41:06.214Z,13.47
2022-09-16T07:43:32.556Z,13.50
2022-09-16T07:45:59.483Z,13.59
2022-09-16T07:48:32.454Z,13.65
2022-09-16T07:51:04.806Z,13.69
2022-09-16T07:53:32.088Z,13.65
2022-09-16T07:56:04.227Z,13.69
2022-09-16T07:58:30.903Z,13.70
2022-09-16T08:01:01.908Z,13.71
2022-09-16T08:03:30.516Z,13.75
2022-09-16T08:06:08.058Z,13.85
2022-09-16T08:08:34.684Z,13.81
2022-09-16T08:11:02.153Z,13.79
2022-09-16T08:13:31.020Z,13.81
2022-09-16T08:16:06.923Z,13.86
2022-09-16T08:18:33.789Z,13.85
2022-09-16T08:21:12.336Z,13.94
2022-09-16T08:23:39.790Z,13.96
2022-09-16T08:26:11.199Z,13.98
2022-09-16T08:28:51.075Z,13.96
2022-09-16T08:31:25.941Z,13.99
2022-09-16T08:33:52.399Z,14.01
2022-09-16T08:36:21.467Z,14.03
2022-09-16T08:38:54.392Z,14.07
2022-09-16T08:41:39.484Z,14.01
2022-09-16T08:44:20.545Z,13.97
2022-09-16T08:47:00.727Z,14.02
2022-09-16T08:49:59.403Z,14.04
2022-09-16T08:52:33.145Z,14.04
2022-09-16T08:55:21.615Z,14.06
2022-09-16T08:58:16.078Z,14.11
2022-09-16T09:00:44.248Z,14.14
2022-09-16T09:03:43.496Z,14.24
2022-09-16T09:06:50.962Z,14.41
2022-09-16T09:09:50.638Z,14.52
2022-09-16T09:12:33.277Z,14.60
2022-09-16T09:15:26.124Z,14.65
2022-09-16T09:18:15.732Z,14.64
2022-09-16T09:21:14.927Z,14.63
2022-09-16T09:23:52.720Z,14.56
2022-09-16T09:26:37.507Z,14.48
2022-09-16T09:29:24.347Z,14.46
2022-09-16T09:32:14.394Z,14.42
2022-09-16T09:35:04.603Z,14.41
2022-09-16T09:37:32.121Z,14.38
2022-09-16T09:40:15.968Z,14.35
2022-09-16T09:43:05.018Z,14.30
2022-09-16T09:45:35.526Z,14.29
2022-09-16T09:48:21.875Z,14.28
2022-09-16T09:50:49.892Z,14.34
2022-09-16T09:53:44.560Z,14.53
2022-09-16T09:56:10.854Z,14.63
2022-09-16T09:58:54.950Z,14.70
2022-09-16T10:01:21.701Z,14.77
2022-09-16T10:03:50.652Z,14.71
2022-09-16T10:06:22.967Z,14.59
2022-09-16T10:08:51.469Z,14.61
2022-09-16T10:11:23.799Z,14.60
2022-09-16T10:13:55.609Z,14.58
2022-09-16T10:16:30.138Z,14.55
2022-09-16T10:19:02.224Z,14.45
2022-09-16T10:21:41.071Z,14.42
2022-09-16T10:24:33.290Z,14.42
2022-09-16T10:27:01.955Z,14.40
2022-09-16T10:29:28.911Z,14.36
2022-09-16T10:31:55.975Z,14.32
2022-09-16T10:34:38.945Z,14.28
2022-09-16T10:37:08.002Z,14.23
2022-09-16T10:39:34.676Z,14.20
2022-09-16T10:42:02.930Z,14.18
2022-09-16T10:44:34.083Z,14.21
2022-09-16T10:47:17.487Z,14.22
2022-09-16T10:49:48.936Z,14.26
2022-09-16T10:52:28.065Z,14.32
2022-09-16T10:54:55.202Z,14.33
2022-09-16T10:57:32.658Z,14.33
2022-09-16T11:00:27.751Z,14.37
2022-09-16T11:03:23.764Z,14.38
2022-09-16T11:06:08.633Z,14.39
2022-09-16T11:08:44.201Z,14.44
2022-09-16T11:11:27.626Z,14.48
2022-09-16T11:14:29.648Z,14.51
2022-09-16T11:17:17.554Z,14.48
2022-09-16T11:19:56.191Z,14.47
2022-09-16T11:22:43.448Z,14.47
2022-09-16T11:25:27.766Z,14.37
2022-09-16T11:28:24.630Z,14.34
2022-09-16T11:30:57.430Z,14.35
2022-09-16T11:33:49.940Z,14.34
2022-09-16T11:36:34.866Z,14.33
2022-09-16T11:39:46.305Z,14.38
2022-09-16T11:42:15.727Z,14.38
2022-09-16T11:45:12.732Z,14.44
2022-09-16T11:48:03.816Z,14.54
2022-09-16T11:50:45.357Z,14.60
2022-09-16T11:53:39.585Z,14.74
2022-09-16T11:56:16.245Z,14.89
2022-09-16T11:58:51.457Z,14.93
2022-09-16T12:01:34.950Z,14.93
2022-09-16T12:04:27.328Z,14.96
2022-09-16T12:07:17.667Z,15.14
2022-09-16T12:09:46.844Z,15.45
2022-09-16T12:12:28.408Z,15.64
2022-09-16T12:15:05.421Z,15.73
2022-09-16T12:17:36.547Z,15.78
2022-09-16T12:20:27.551Z,15.81
2022-09-16T12:23:16.996Z,15.90
2022-09-16T12:26:21.691Z,15.99
2022-09-16T12:28:59.343Z,16.11
2022-09-16T12:31:40.266Z,16.58
2022-09-16T12:34:18.359Z,17.05
2022-09-16T12:36:50.037Z,17.35
2022-09-16T12:39:16.558Z,17.64
2022-09-16T12:42:01.778Z,17.47
2022-09-16T12:44:42.756Z,17.02
2022-09-16T12:47:20.511Z,16.67
2022-09-16T12:49:56.192Z,16.44
2022-09-16T12:52:32.583Z,16.37
2022-09-16T12:55:23.169Z,16.32
2022-09-16T12:57:49.503Z,16.23
2022-09-16T13:00:25.964Z,16.14
2022-09-16T13:02:57.218Z,16.08
2022-09-16T13:05:37.895Z,16.03
2022-09-16T13:08:18.811Z,15.99
2022-09-16T13:13:46.141Z,15.96
2022-09-16T13:16:12.655Z,15.93
2022-09-16T13:18:45.173Z,16.02
2022-09-16T13:21:25.696Z,16.54
2022-09-16T13:24:24.249Z,16.79
2022-09-16T13:26:51.043Z,17.17
2022-09-16T13:29:36.691Z,17.64
2022-09-16T13:32:03.386Z,17.47
2022-09-16T13:34:30.986Z,17.60
2022-09-16T13:36:58.535Z,17.81
2022-09-16T13:39:34.427Z,17.80
2022-09-16T13:42:21.084Z,17.71
2022-09-16T13:44:47.624Z,17.82
2022-09-16T13:47:17.429Z,17.92
2022-09-16T13:49:51.822Z,17.88
2022-09-16T13:52:33.370Z,17.48
2022-09-16T13:55:11.414Z,17.25
2022-09-16T13:58:02.742Z,16.99
2022-09-16T14:00:38.493Z,16.71
2022-09-16T14:03:20.266Z,16.61
2022-09-16T14:06:08.643Z,16.54
2022-09-16T14:09:06.365Z,16.42
2022-09-16T14:11:48.998Z,16.38
2022-09-16T14:14:47.473Z,16.35
2022-09-16T14:17:22.528Z,16.32
2022-09-16T14:19:52.822Z,16.30
2022-09-16T14:22:26.839Z,16.29
2022-09-16T14:25:05.795Z,16.32
2022-09-16T14:27:40.376Z,16.79
2022-09-16T14:30:19.537Z,17.25
2022-09-16T14:32:48.078Z,17.51
2022-09-16T14:35:22.294Z,17.48
2022-09-16T14:37:53.789Z,17.56
2022-09-16T14:40:23.343Z,17.31
2022-09-16T14:43:15.273Z,16.98
2022-09-16T14:45:47.061Z,16.86
2022-09-16T14:48:16.263Z,17.12
2022-09-16T14:50:47.014Z,17.32
2022-09-16T14:53:33.781Z,17.40
2022-09-16T14:56:02.010Z,17.35
2022-09-16T14:58:31.299Z,17.38
2022-09-16T15:01:18.306Z,17.33
2022-09-16T15:03:51.810Z,17.08
2022-09-16T15:06:22.961Z,16.96
2022-09-16T15:09:04.961Z,17.14
2022-09-16T15:11:48.135Z,17.34
2022-09-16T15:14:17.178Z,17.38
2022-09-16T15:16:50.319Z,17.25
2022-09-16T15:19:23.641Z,17.10
2022-09-16T15:21:50.869Z,16.98
2022-09-16T15:24:25.049Z,16.87
2022-09-16T15:26:52.629Z,16.80
2022-09-16T15:29:19.023Z,16.72
2022-09-16T15:31:46.820Z,16.57
2022-09-16T15:34:20.444Z,16.61
2022-09-16T15:36:52.301Z,16.69
2022-09-16T15:39:33.606Z,16.68
2022-09-16T15:42:13.659Z,16.62
2022-09-16T15:44:49.314Z,16.56
2022-09-16T15:47:31.624Z,16.58
2022-09-16T15:50:04.009Z,16.55
2022-09-16T15:52:52.395Z,16.54
2022-09-16T15:55:42.893Z,16.49
2022-09-16T15:58:12.563Z,16.54
2022-09-16T16:00:57.516Z,16.55
2022-09-16T16:03:24.173Z,16.53
2022-09-16T16:05:52.711Z,16.49
2022-09-16T16:08:37.528Z,16.36
2022-09-16T16:11:09.951Z,16.26
2022-09-16T16:13:36.718Z,16.17
2022-09-16T16:16:06.185Z,16.05
2022-09-16T16:18:32.775Z,16.01
2022-09-16T16:21:01.570Z,15.98
2022-09-16T16:23:28.378Z,15.93
2022-09-16T16:25:55.294Z,15.98
2022-09-16T16:28:22.112Z,15.97
2022-09-16T16:30:48.844Z,15.98
2022-09-16T16:33:15.424Z,16.04
2022-09-16T16:35:42.195Z,16.07
2022-09-16T16:38:08.699Z,16.06
2022-09-16T16:40:35.894Z,16.08
2022-09-16T16:43:02.619Z,16.09
2022-09-16T16:45:31.287Z,16.02
2022-09-16T16:47:57.751Z,15.96
2022-09-16T16:50:24.205Z,15.90
2022-09-16T16:52:53.257Z,15.79
2022-09-16T16:55:19.853Z,15.74
2022-09-16T16:57:46.493Z,15.69
2022-09-16T17:00:14.380Z,15.65
2022-09-16T17:02:43.767Z,15.62
2022-09-16T17:05:10.757Z,15.56
2022-09-16T17:07:40.065Z,15.49
2022-09-16T17:10:06.998Z,15.48
2022-09-16T17:12:33.542Z,15.38
2022-09-16T17:15:00.059Z,15.26
2022-09-16T17:17:31.413Z,15.22
2022-09-16T17:19:58.405Z,15.15
2022-09-16T17:22:24.937Z,15.02
2022-09-16T17:24:51.498Z,14.89
2022-09-16T17:27:20.734Z,14.72
2022-09-16T17:29:47.288Z,14.57
2022-09-16T17:32:13.791Z,14.42
2022-09-16T17:34:41.452Z,14.31
2022-09-16T17:37:08.529Z,14.10
2022-09-16T17:39:35.396Z,14.03
2022-09-16T17:42:01.902Z,14.02
2022-09-16T17:44:28.373Z,14.02
2022-09-16T17:46:55.013Z,14.01
2022-09-16T17:49:23.822Z,13.97
2022-09-16T17:51:51.753Z,13.97
2022-09-16T17:54:18.634Z,13.91
2022-09-16T17:56:45.586Z,13.84
2022-09-16T17:59:13.637Z,13.77
2022-09-16T18:01:40.288Z,13.71
2022-09-16T18:04:07.587Z,13.63
2022-09-16T18:06:46.106Z,13.55
2022-09-16T18:09:13.767Z,13.58
2022-09-16T18:11:41.051Z,13.58
2022-09-16T18:14:10.618Z,13.55
2022-09-16T18:16:37.893Z,13.57
2022-09-16T18:21:32.804Z,13.53
2022-09-16T18:24:02.390Z,13.53
2022-09-16T18:26:30.037Z,13.55
2022-09-16T18:29:09.548Z,13.53
2022-09-16T18:31:48.575Z,13.51
2022-09-16T18:34:16.160Z,13.50
2022-09-16T18:36:45.718Z,13.48
2022-09-16T18:39:14.953Z,13.46
2022-09-16T18:41:42.842Z,13.40
2022-09-16T18:44:20.967Z,13.38
2022-09-16T18:46:48.169Z,13.36
2022-09-16T18:49:16.356Z,13.31
2022-09-16T18:51:50.467Z,13.31
2022-09-16T18:54:24.693Z,13.31
2022-09-16T18:56:52.518Z,13.27
2022-09-16T18:59:22.703Z,13.25
2022-09-16T19:01:51.541Z,13.21
2022-09-16T19:04:20.333Z,13.16
2022-09-16T19:06:49.392Z,13.14
2022-09-16T19:09:18.429Z,13.10
2022-09-16T19:11:44.956Z,13.06
2022-09-16T19:14:15.479Z,13.05
2022-09-16T19:16:44.096Z,13.04
2022-09-16T19:19:13.725Z,13.00
2022-09-16T19:21:40.862Z,12.96
2022-09-16T19:24:13.767Z,12.96
2022-09-16T19:26:41.279Z,12.95
2022-09-16T19:29:08.431Z,12.95
2022-09-16T19:31:38.051Z,12.94
2022-09-16T19:34:04.806Z,12.94
2022-09-16T19:36:32.425Z,12.91
2022-09-16T19:38:59.383Z,12.91
2022-09-16T19:41:28.411Z,12.91
2022-09-16T19:44:03.772Z,12.88
2022-09-16T19:46:34.685Z,12.86
2022-09-16T19:49:01.672Z,12.84
2022-09-16T19:51:29.013Z,12.82
2022-09-16T19:53:55.655Z,12.82
2022-09-16T19:56:24.364Z,12.77
2022-09-16T19:58:51.890Z,12.73
2022-09-16T20:01:30.504Z,12.72
2022-09-16T20:03:57.067Z,12.70
2022-09-16T20:06:32.592Z,12.65
2022-09-16T20:09:00.730Z,12.61
2022-09-16T20:11:30.017Z,12.60
2022-09-16T20:13:59.038Z,12.59
2022-09-16T20:16:28.691Z,12.55
2022-09-16T20:18:55.090Z,12.52
2022-09-16T20:21:24.315Z,12.54
2022-09-16T20:23:51.935Z,12.51
2022-09-16T20:26:20.743Z,12.49
2022-09-16T20:28:52.876Z,12.48
2022-09-16T20:31:21.923Z,12.45
2022-09-16T20:33:48.893Z,12.43
2022-09-16T20:36:17.107Z,12.44
2022-09-16T20:38:44.628Z,12.39
2022-09-16T20:41:17.724Z,12.39
2022-09-16T20:43:45.307Z,12.39
2022-09-16T20:46:16.960Z,12.38
2022-09-16T20:48:45.006Z,12.35
2022-09-16T20:51:17.438Z,12.31
2022-09-16T20:53:44.845Z,12.28
2022-09-16T20:56:13.906Z,12.25
2022-09-16T20:58:41.051Z,12.24
2022-09-16T21:01:11.529Z,12.24
2022-09-16T21:03:38.888Z,12.24
2022-09-16T21:06:10.456Z,12.23
2022-09-16T21:08:37.398Z,12.22
2022-09-16T21:11:08.266Z,12.19
2022-09-16T21:13:35.659Z,12.19
2022-09-16T21:16:02.710Z,12.19
2022-09-16T21:18:30.429Z,12.20
2022-09-16T21:21:03.364Z,12.24
2022-09-16T21:23:30.824Z,12.23
2022-09-16T21:26:19.208Z,12.25
2022-09-16T21:28:49.040Z,12.27
2022-09-16T21:31:16.143Z,12.23
2022-09-16T21:33:44.768Z,12.21
2022-09-16T21:36:13.638Z,12.22
2022-09-16T21:38:41.221Z,12.22
2022-09-16T21:41:12.747Z,12.21
2022-09-16T21:43:41.911Z,12.19
2022-09-16T21:46:12.945Z,12.18
2022-09-16T21:48:39.637Z,12.19
2022-09-16T21:51:08.102Z,12.18
2022-09-16T21:53:37.248Z,12.16
2022-09-16T21:56:05.647Z,12.13
2022-09-16T21:58:32.331Z,12.11
2022-09-16T22:01:13.716Z,12.07
2022-09-16T22:03:43.315Z,12.06
2022-09-16T22:06:11.535Z,12.06
2022-09-16T22:08:38.088Z,12.05
2022-09-16T22:11:08.969Z,12.06
2022-09-16T22:13:35.834Z,12.02
2022-09-16T22:16:03.431Z,12.00
2022-09-16T22:18:31.080Z,11.93
2022-09-16T22:21:14.146Z,11.85
2022-09-16T22:23:41.048Z,11.79
2022-09-16T22:26:11.892Z,11.75
2022-09-16T22:28:39.177Z,11.73
2022-09-16T22:31:14.010Z,11.73
2022-09-16T22:33:41.905Z,11.70
2022-09-16T22:36:10.750Z,11.69
2022-09-16T22:38:37.999Z,11.67
2022-09-16T22:41:09.788Z,11.66
2022-09-16T22:43:38.270Z,11.66
2022-09-16T22:46:11.109Z,11.64
2022-09-16T22:48:38.296Z,11.61
2022-09-16T22:51:05.734Z,11.59
2022-09-16T22:53:33.332Z,11.56
2022-09-16T22:56:02.096Z,11.55
2022-09-16T22:58:29.940Z,11.54
2022-09-16T23:01:14.630Z,11.52
2022-09-16T23:03:43.792Z,11.48
2022-09-16T23:06:13.011Z,11.46
2022-09-16T23:08:42.149Z,11.42
2022-09-16T23:11:11.180Z,11.36
2022-09-16T23:13:42.314Z,11.34
2022-09-16T23:16:17.849Z,11.30
2022-09-16T23:18:45.730Z,11.31
2022-09-16T23:21:14.796Z,11.31
2022-09-16T23:23:44.660Z,11.31
2022-09-16T23:26:16.481Z,11.33
2022-09-16T23:28:42.991Z,11.32
2022-09-16T23:31:12.941Z,11.29
2022-09-16T23:33:40.732Z,11.29
2022-09-16T23:36:08.878Z,11.35
2022-09-16T23:38:37.506Z,11.36
2022-09-16T23:41:10.777Z,11.36
2022-09-16T23:43:44.529Z,11.31
2022-09-16T23:46:14.109Z,11.30
2022-09-16T23:48:43.093Z,11.27
2022-09-16T23:51:10.752Z,11.27
2022-09-16T23:53:38.567Z,11.27
2022-09-16T23:56:07.120Z,11.24
2022-09-16T23:58:33.721Z,11.22
